Time;durP1;ratioP1;P1;durP2;ratioP2;P2;SDS_P1;SDS_P2;PMS_P1;PMS_P2;Temp;Humidity;BMP_temperature;BMP_pressure;BME280_temperature;BME280_humidity;BME280_pressure;Samples;Min_cycle;Max_cycle;Signal;HPM_P1;HPM_P2
2023/05/09 00:01:30;;;;;;;4.50;2.00;;;;;;;3.63;100.00;101038.77;105235;1260;75199;-44
2023/05/09 00:03:58;;;;;;;4.20;1.60;;;;;;;3.59;100.00;101039.99;105315;1255;70357;-44
2023/05/09 00:06:26;;;;;;;4.50;2.00;;;;;;;3.57;100.00;101035.92;105233;1259;73641;-47
2023/05/09 00:08:53;;;;;;;7.20;1.80;;;;;;;3.56;100.00;101035.40;105184;1261;60381;-47
2023/05/09 00:11:23;;;;;;;4.10;1.80;;;;;;;3.58;100.00;101035.56;106611;1258;61331;-44
2023/05/09 00:13:50;;;;;;;2.60;1.30;;;;;;;3.56;100.00;101035.75;105220;1257;73720;-46
2023/05/09 00:16:19;;;;;;;3.30;1.30;;;;;;;3.57;100.00;101036.46;108866;1255;66890;-47
2023/05/09 00:18:46;;;;;;;2.50;1.20;;;;;;;3.56;100.00;101033.09;108802;1257;72076;-48
2023/05/09 00:21:13;;;;;;;3.50;1.20;;;;;;;3.56;100.00;101033.98;108802;1258;61847;-47
2023/05/09 00:23:39;;;;;;;3.60;1.20;;;;;;;3.55;100.00;101036.10;108876;1255;59065;-47
2023/05/09 00:26:06;;;;;;;2.70;1.20;;;;;;;3.61;100.00;101036.98;108893;1255;73857;-47
2023/05/09 00:28:33;;;;;;;3.60;1.70;;;;;;;3.68;100.00;101035.74;108881;1259;70372;-47
2023/05/09 00:31:00;;;;;;;4.10;1.00;;;;;;;3.76;100.00;101028.46;108859;1255;71828;-48
2023/05/09 00:33:27;;;;;;;5.10;1.40;;;;;;;3.84;100.00;101031.11;108762;1256;58989;-46
2023/05/09 00:35:53;;;;;;;3.40;1.40;;;;;;;3.91;100.00;101028.98;108847;1256;60651;-45
2023/05/09 00:38:21;;;;;;;2.30;1.20;;;;;;;3.96;100.00;101028.62;108640;1260;72168;-46
2023/05/09 00:40:48;;;;;;;6.60;1.70;;;;;;;3.94;100.00;101031.81;108673;1255;70228;-45
2023/05/09 00:43:15;;;;;;;2.10;1.10;;;;;;;3.93;100.00;101028.79;108823;1256;72578;-45
2023/05/09 00:45:43;;;;;;;3.10;1.20;;;;;;;3.90;100.00;101032.73;108836;1257;59537;-45
2023/05/09 00:48:09;;;;;;;5.70;1.30;;;;;;;3.90;100.00;101030.06;108657;1255;63856;-45
2023/05/09 00:50:36;;;;;;;2.90;1.40;;;;;;;3.91;100.00;101027.92;108864;1255;75837;-46
2023/05/09 00:53:04;;;;;;;4.00;1.30;;;;;;;3.93;100.00;101028.45;108454;1255;66542;-46
2023/05/09 00:55:31;;;;;;;2.60;1.10;;;;;;;3.94;100.00;101024.72;108835;1256;73422;-45
2023/05/09 00:57:57;;;;;;;5.20;1.30;;;;;;;3.96;100.00;101026.48;108871;1256;60014;-44
2023/05/09 01:00:24;;;;;;;3.10;1.50;;;;;;;3.98;100.00;101026.50;106916;1256;59900;-45
2023/05/09 01:02:52;;;;;;;6.20;1.70;;;;;;;3.99;100.00;101025.27;106326;1255;74405;-46
2023/05/09 01:05:20;;;;;;;3.00;1.10;;;;;;;3.99;100.00;101029.87;108661;1255;67421;-46
2023/05/09 01:08:02;;;;;;;6.40;1.30;;;;;;;4.01;100.00;101029.86;106061;1257;74026;-46
2023/05/09 01:10:50;;;;;;;3.70;1.30;;;;;;;4.02;100.00;101028.08;105060;1257;60872;-44
2023/05/09 01:13:50;;;;;;;2.60;1.20;;;;;;;3.99;100.00;101031.83;105130;1261;60491;-44
2023/05/09 01:16:26;;;;;;;1.60;1.10;;;;;;;3.97;100.00;101029.69;105735;1258;75218;-47
2023/05/09 01:19:16;;;;;;;5.50;1.40;;;;;;;3.98;100.00;101032.19;105079;1259;69722;-44
2023/05/09 01:21:43;;;;;;;2.20;1.30;;;;;;;3.99;100.00;101032.89;105138;1256;74642;-46
2023/05/09 01:24:41;;;;;;;2.50;1.40;;;;;;;3.98;100.00;101028.27;105316;1259;60611;-44
2023/05/09 01:27:21;;;;;;;3.70;1.10;;;;;;;3.97;100.00;101028.98;105100;1255;61327;-47
2023/05/09 01:29:58;;;;;;;5.80;1.40;;;;;;;3.99;100.00;101025.95;107060;1256;72670;-47
2023/05/09 01:32:27;;;;;;;2.40;1.10;;;;;;;4.02;100.00;101025.23;105342;1259;70047;-46
2023/05/09 01:34:55;;;;;;;3.40;1.00;;;;;;;4.06;100.00;101022.76;105419;1261;74115;-46
2023/05/09 01:37:27;;;;;;;1.50;0.90;;;;;;;4.11;100.00;101021.13;105249;1261;61490;-45
2023/05/09 01:39:55;;;;;;;3.30;0.90;;;;;;;4.16;100.00;101021.84;105370;1258;61185;-46
2023/05/09 01:42:22;;;;;;;2.60;1.20;;;;;;;4.21;100.00;101019.52;105116;1262;73378;-48
2023/05/09 01:44:48;;;;;;;5.50;1.20;;;;;;;4.27;100.00;101020.39;105270;1256;67949;-42
2023/05/09 01:47:15;;;;;;;2.30;1.10;;;;;;;4.32;100.00;101020.74;105260;1260;72074;-43
2023/05/09 01:49:42;;;;;;;2.50;1.00;;;;;;;4.36;100.00;101018.94;104989;1260;61576;-45
2023/05/09 01:52:11;;;;;;;1.90;1.20;;;;;;;4.38;100.00;101018.05;105332;1257;61755;-49
2023/05/09 01:54:37;;;;;;;4.80;1.00;;;;;;;4.40;100.00;101016.27;104865;1264;72994;-46
2023/05/09 01:57:05;;;;;;;1.90;0.90;;;;;;;4.39;100.00;101019.84;104628;1256;69720;-44
2023/05/09 01:59:32;;;;;;;4.40;1.40;;;;;;;4.37;100.00;101017.52;104827;1261;71285;-46
2023/05/09 02:02:00;;;;;;;1.70;1.10;;;;;;;4.36;100.00;101013.61;105985;1261;61451;-46
2023/05/09 02:04:27;;;;;;;2.30;1.10;;;;;;;4.33;100.00;101018.44;108318;1256;61255;-45
2023/05/09 02:06:54;;;;;;;2.30;0.90;;;;;;;4.29;100.00;101018.44;105412;1261;76111;-45
2023/05/09 02:09:20;;;;;;;3.30;1.20;;;;;;;4.28;100.00;101018.61;105269;1255;69597;-45
2023/05/09 02:11:47;;;;;;;1.90;1.00;;;;;;;4.28;100.00;101018.25;105219;1262;73800;-46
2023/05/09 02:14:14;;;;;;;1.60;1.10;;;;;;;4.27;100.00;101020.73;105248;1265;60842;-46
2023/05/09 02:16:41;;;;;;;4.40;1.20;;;;;;;4.27;100.00;101018.08;105643;1262;60925;-44
2023/05/09 02:19:08;;;;;;;4.70;1.10;;;;;;;4.28;100.00;101015.40;105109;1263;74194;-44
2023/05/09 02:21:34;;;;;;;2.30;1.20;;;;;;;4.29;100.00;101017.71;105309;1261;69429;-45
2023/05/09 02:24:02;;;;;;;3.00;1.10;;;;;;;4.33;100.00;101020.56;105239;1261;76468;-42
2023/05/09 02:26:28;;;;;;;4.10;1.00;;;;;;;4.38;100.00;101017.52;105373;1256;60489;-45
2023/05/09 02:28:55;;;;;;;4.10;1.00;;;;;;;4.42;100.00;101016.61;105055;1264;61762;-47
2023/05/09 02:31:23;;;;;;;3.70;0.90;;;;;;;4.47;100.00;101018.55;105464;1260;75439;-46
2023/05/09 02:33:50;;;;;;;3.80;0.90;;;;;;;4.52;100.00;101016.75;105954;1261;69114;-45
2023/05/09 02:36:17;;;;;;;1.60;0.90;;;;;;;4.58;100.00;101013.73;105718;1260;71607;-47
2023/05/09 02:38:44;;;;;;;6.00;1.40;;;;;;;4.62;100.00;101013.70;105148;1260;60513;-45
2023/05/09 02:41:13;;;;;;;2.60;1.00;;;;;;;4.65;100.00;101014.75;104967;1262;60612;-45
2023/05/09 02:43:40;;;;;;;2.70;1.10;;;;;;;4.70;100.00;101010.64;105121;1261;106274;-46
2023/05/09 02:47:01;;;;;;;3.20;1.30;;;;;;;4.77;100.00;101015.60;102196;1292;600828;-47
2023/05/09 02:49:27;;;;;;;4.60;1.90;;;;;;;4.78;100.00;101013.09;104348;1273;61646;-45
2023/05/09 02:51:59;;;;;;;2.70;1.00;;;;;;;4.80;100.00;101012.19;104315;1268;60892;-47
2023/05/09 02:54:26;;;;;;;2.80;1.00;;;;;;;4.75;100.00;101014.89;104521;1273;74866;-46
2023/05/09 02:56:53;;;;;;;4.50;1.60;;;;;;;4.70;100.00;101012.41;106038;1273;70016;-45
2023/05/09 02:59:20;;;;;;;2.70;1.00;;;;;;;4.69;100.00;101013.48;104278;1273;71295;-46
2023/05/09 03:01:46;;;;;;;1.90;1.00;;;;;;;4.70;100.00;101014.90;104220;1267;165481;-45
2023/05/09 03:04:15;;;;;;;1.50;1.10;;;;;;;4.67;100.00;101014.03;104401;1266;61054;-47
2023/05/09 03:06:42;;;;;;;4.30;1.50;;;;;;;4.62;100.00;101015.30;104406;1267;74339;-47
2023/05/09 03:09:09;;;;;;;2.70;1.10;;;;;;;4.55;100.00;101017.99;104417;1267;70555;-46
2023/05/09 03:11:36;;;;;;;4.30;1.00;;;;;;;4.51;100.00;101018.55;104156;1273;70600;-45
2023/05/09 03:14:03;;;;;;;2.10;0.80;;;;;;;4.49;100.00;101016.43;104138;1268;63213;-47
2023/05/09 03:16:30;;;;;;;1.60;0.80;;;;;;;4.51;100.00;101018.37;104355;1267;62168;-45
2023/05/09 03:18:57;;;;;;;3.00;0.90;;;;;;;4.57;100.00;101018.88;104721;1268;74945;-47
2023/05/09 03:21:24;;;;;;;1.50;0.80;;;;;;;4.62;100.00;101017.95;104391;1272;68128;-45
2023/05/09 03:23:51;;;;;;;3.50;1.00;;;;;;;4.65;100.00;101020.81;104431;1267;73819;-46
2023/05/09 03:26:18;;;;;;;2.50;1.00;;;;;;;4.72;100.00;101020.41;107914;1267;62861;-48
2023/05/09 03:28:45;;;;;;;5.20;0.90;;;;;;;4.81;100.00;101021.44;108132;1266;59094;-45
2023/05/09 03:31:13;;;;;;;4.50;1.10;;;;;;;4.92;100.00;101023.69;107059;1268;74976;-45
2023/05/09 03:33:40;;;;;;;2.60;1.00;;;;;;;5.01;100.00;101023.83;104887;1271;68981;-46
2023/05/09 03:36:08;;;;;;;2.20;1.00;;;;;;;5.08;100.00;101021.13;104779;1267;72753;-45
2023/05/09 03:38:35;;;;;;;2.20;0.80;;;;;;;5.12;100.00;101021.27;105466;1273;61601;-45
2023/05/09 03:41:02;;;;;;;2.00;0.90;;;;;;;5.16;100.00;101021.26;106628;1268;61970;-46
2023/05/09 03:43:29;;;;;;;2.70;0.90;;;;;;;5.23;100.00;101018.89;104328;1267;72780;-47
2023/05/09 03:45:56;;;;;;;2.00;0.90;;;;;;;5.32;100.00;101015.44;104306;1267;68527;-47
2023/05/09 03:48:23;;;;;;;3.90;1.10;;;;;;;5.43;100.00;101018.76;104397;1267;74822;-47
2023/05/09 03:50:50;;;;;;;1.50;1.00;;;;;;;5.51;100.00;101014.42;106058;1267;61560;-44
2023/05/09 03:53:19;;;;;;;4.50;1.00;;;;;;;5.58;100.00;101012.77;103960;1267;62427;-46
2023/05/09 03:55:46;;;;;;;1.70;0.90;;;;;;;5.63;100.00;101020.36;104045;1273;75306;-45
2023/05/09 03:58:13;;;;;;;2.80;0.90;;;;;;;5.68;100.00;101020.87;104272;1267;69729;-45
2023/05/09 04:00:41;;;;;;;1.80;0.80;;;;;;;5.76;100.00;101021.16;105681;1261;72651;-45
2023/05/09 04:03:10;;;;;;;1.40;0.70;;;;;;;5.86;100.00;101021.62;104839;1261;62851;-47
2023/05/09 04:05:40;;;;;;;3.10;1.00;;;;;;;5.99;100.00;101017.95;104873;1260;62371;-46
2023/05/09 04:08:11;;;;;;;1.00;0.60;;;;;;;6.12;100.00;101016.58;104754;1260;72605;-47
2023/05/09 04:10:38;;;;;;;2.50;0.90;;;;;;;6.24;100.00;101014.67;104847;1261;69927;-47
2023/05/09 04:13:05;;;;;;;3.90;0.90;;;;;;;6.38;100.00;101015.95;104752;1261;73826;-46
2023/05/09 04:15:32;;;;;;;1.50;1.00;;;;;;;6.51;100.00;101013.48;104767;1261;61301;-47
2023/05/09 04:17:58;;;;;;;1.50;0.70;;;;;;;6.63;100.00;101013.88;104881;1262;61938;-46
2023/05/09 04:20:26;;;;;;;2.80;0.90;;;;;;;6.72;100.00;101015.35;104814;1266;75181;-46
2023/05/09 04:22:53;;;;;;;2.10;0.80;;;;;;;6.82;100.00;101017.73;104924;1261;67188;-45
2023/05/09 04:25:20;;;;;;;1.50;0.70;;;;;;;6.91;100.00;101017.95;104682;1262;73387;-46
2023/05/09 04:27:47;;;;;;;3.70;0.80;;;;;;;6.99;100.00;101019.10;104973;1266;60925;-47
2023/05/09 04:30:14;;;;;;;2.30;0.80;;;;;;;7.05;100.00;101016.53;104832;1262;62481;-48
2023/05/09 04:32:44;;;;;;;2.00;0.80;;;;;;;7.11;100.00;101015.55;104966;1261;73195;-46
2023/05/09 04:35:12;;;;;;;2.30;0.90;;;;;;;7.18;100.00;101014.55;105241;1261;68552;-44
2023/05/09 04:37:41;;;;;;;3.60;0.80;;;;;;;7.25;100.00;101015.35;105300;1267;73106;-45
2023/05/09 04:40:09;;;;;;;7.60;0.90;;;;;;;7.30;100.00;101018.49;104919;1266;59832;-44
2023/05/09 04:42:41;;;;;;;1.50;0.70;;;;;;;7.38;100.00;101017.13;104907;1262;61343;-46
2023/05/09 04:45:10;;;;;;;1.80;0.80;;;;;;;7.46;100.00;101015.73;105208;1265;75140;-46
2023/05/09 04:47:37;;;;;;;1.20;0.70;;;;;;;7.53;100.00;101013.85;105027;1260;70271;-48
2023/05/09 04:50:05;;;;;;;1.20;0.70;;;;;;;7.59;100.00;101014.64;105083;1260;74609;-47
2023/05/09 04:52:31;;;;;;;3.30;0.80;;;;;;;7.65;100.00;101014.54;104846;1262;59748;-48
2023/05/09 04:54:58;;;;;;;1.10;0.60;;;;;;;7.71;100.00;101012.66;104907;1264;59648;-48
2023/05/09 04:57:26;;;;;;;3.30;0.70;;;;;;;7.78;100.00;101017.73;105187;1261;71853;-47
2023/05/09 04:59:55;;;;;;;1.40;0.60;;;;;;;7.85;100.00;101017.23;104943;1259;68557;-47
2023/05/09 05:02:23;;;;;;;1.50;0.60;;;;;;;7.93;100.00;101014.07;104875;1258;72490;-46
2023/05/09 05:04:51;;;;;;;1.90;0.60;;;;;;;8.00;100.00;101015.73;104464;1258;59641;-47
2023/05/09 05:07:23;;;;;;;4.30;0.60;;;;;;;8.10;100.00;101012.14;104285;1264;61309;-47
2023/05/09 05:09:50;;;;;;;0.80;0.70;;;;;;;8.18;100.00;101012.54;104794;1259;73222;-46
2023/05/09 05:12:17;;;;;;;1.00;0.50;;;;;;;8.24;100.00;101012.97;104910;1264;71789;-47
2023/05/09 05:14:44;;;;;;;4.50;0.60;;;;;;;8.27;100.00;101008.07;104851;1259;72152;-46
2023/05/09 05:17:15;;;;;;;1.70;0.50;;;;;;;8.32;100.00;101004.26;104831;1262;59717;-46
2023/05/09 05:19:43;;;;;;;5.10;0.70;;;;;;;8.39;100.00;101001.27;104899;1259;59785;-47
2023/05/09 05:22:10;;;;;;;1.50;0.70;;;;;;;8.46;100.00;101003.80;104907;1258;74428;-46
2023/05/09 05:24:38;;;;;;;1.00;0.60;;;;;;;8.53;100.00;101003.48;104904;1258;67604;-46
2023/05/09 05:27:05;;;;;;;3.90;0.60;;;;;;;8.57;100.00;101003.24;104866;1264;74098;-45
2023/05/09 05:29:32;;;;;;;2.20;0.60;;;;;;;8.59;100.00;101001.56;104675;1263;60264;-45
2023/05/09 05:32:00;;;;;;;2.50;0.60;;;;;;;8.63;100.00;100995.41;104980;1259;60638;-46
2023/05/09 05:34:27;;;;;;;4.00;0.50;;;;;;;8.66;100.00;100995.36;105038;1259;75432;-46
2023/05/09 05:36:54;;;;;;;4.00;0.50;;;;;;;8.68;100.00;100994.95;104957;1258;67829;-45
2023/05/09 05:39:22;;;;;;;1.90;0.60;;;;;;;8.74;100.00;100993.93;105005;1258;74063;-46
2023/05/09 05:41:50;;;;;;;1.90;0.60;;;;;;;8.79;100.00;100996.68;106987;1263;60195;-46
2023/05/09 05:44:18;;;;;;;2.60;0.60;;;;;;;8.85;100.00;100992.98;104790;1264;60625;-47
2023/05/09 05:46:45;;;;;;;1.20;0.60;;;;;;;8.92;100.00;100987.65;104821;1259;73853;-46
2023/05/09 05:49:12;;;;;;;1.10;0.50;;;;;;;9.00;100.00;100987.46;104772;1258;67549;-47
2023/05/09 05:51:39;;;;;;;2.60;0.60;;;;;;;9.06;100.00;100988.21;104831;1258;74754;-46
2023/05/09 05:54:07;;;;;;;3.30;0.80;;;;;;;9.12;100.00;100987.52;104892;1258;59659;-46
2023/05/09 05:56:34;;;;;;;1.10;0.50;;;;;;;9.19;100.00;100990.61;105006;1258;61934;-47
2023/05/09 05:59:01;;;;;;;2.90;0.60;;;;;;;9.26;100.00;100988.84;104859;1260;72285;-46
2023/05/09 06:01:27;;;;;;;5.40;0.60;;;;;;;9.33;100.00;100987.59;104789;1257;70507;-45
2023/05/09 06:03:54;;;;;;;4.50;0.60;;;;;;;9.39;100.00;100983.66;105032;1260;74945;-45
2023/05/09 06:06:25;;;;;;;1.50;0.60;;;;;;;9.44;100.00;100984.45;105003;1264;60994;-47
2023/05/09 06:08:53;;;;;;;1.10;0.60;;;;;;;9.50;100.00;100983.77;105863;1258;60886;-46
2023/05/09 06:11:20;;;;;;;5.00;0.60;;;;;;;9.56;100.00;100984.69;104800;1267;73162;-47
2023/05/09 06:13:46;;;;;;;1.80;0.60;;;;;;;9.64;100.00;100983.41;104904;1264;68653;-47
2023/05/09 06:16:13;;;;;;;2.40;0.50;;;;;;;9.72;100.00;100988.05;105480;1261;73267;-48
2023/05/09 06:18:48;;;;;;;2.90;0.60;;;;;;;9.77;100.00;100985.25;104929;1264;60234;-48
2023/05/09 06:21:14;;;;;;;1.50;0.60;;;;;;;9.79;100.00;100986.98;104895;1259;61811;-45
2023/05/09 06:23:41;;;;;;;0.80;0.70;;;;;;;9.86;100.00;100984.65;104916;1258;74282;-47
2023/05/09 06:26:28;;;;;;;0.60;0.50;;;;;;;9.96;100.00;100983.14;104868;1259;66510;-47
2023/05/09 06:28:55;;;;;;;1.30;0.60;;;;;;;10.05;100.00;100978.95;107201;1262;71773;-47
2023/05/09 06:31:22;;;;;;;2.10;0.60;;;;;;;10.13;100.00;100979.45;104808;1262;62714;-47
2023/05/09 06:33:51;;;;;;;1.50;0.50;;;;;;;10.22;100.00;100973.67;104746;1263;59598;-47
2023/05/09 06:36:18;;;;;;;0.80;0.50;;;;;;;10.28;100.00;100973.34;104343;1259;72098;-48
2023/05/09 06:38:44;;;;;;;0.60;0.40;;;;;;;10.36;100.00;100969.70;104366;1258;69831;-46
2023/05/09 06:41:11;;;;;;;1.00;0.40;;;;;;;10.45;100.00;100968.01;104823;1261;72674;-48
2023/05/09 06:43:38;;;;;;;2.80;0.50;;;;;;;10.53;100.00;100964.54;104635;1261;60922;-47
2023/05/09 06:46:05;;;;;;;2.30;0.40;;;;;;;10.61;100.00;100961.96;104513;1258;59511;-47
2023/05/09 06:48:32;;;;;;;3.10;0.50;;;;;;;10.70;100.00;100960.81;104463;1261;73816;-48
2023/05/09 06:50:58;;;;;;;2.60;0.30;;;;;;;10.81;100.00;100957.77;104481;1259;67088;-49
2023/05/09 06:53:25;;;;;;;1.10;0.50;;;;;;;10.94;100.00;100958.46;104779;1264;71059;-48
2023/05/09 06:55:52;;;;;;;0.80;0.40;;;;;;;11.01;100.00;100962.19;104870;1258;62158;-47
2023/05/09 06:58:19;;;;;;;0.90;0.40;;;;;;;11.05;100.00;100959.77;104860;1259;60792;-47
2023/05/09 07:00:46;;;;;;;2.20;0.40;;;;;;;11.08;100.00;100953.20;104546;1259;72708;-47
2023/05/09 07:03:13;;;;;;;2.60;0.50;;;;;;;11.14;100.00;100948.52;104667;1264;67503;-48
2023/05/09 07:05:40;;;;;;;1.90;0.50;;;;;;;11.22;100.00;100945.71;104921;1262;72479;-48
2023/05/09 07:08:06;;;;;;;5.70;0.40;;;;;;;11.31;100.00;100943.81;104995;1264;61346;-48
2023/05/09 07:10:33;;;;;;;0.80;0.40;;;;;;;11.41;100.00;100944.05;104982;1264;60478;-48
2023/05/09 07:13:00;;;;;;;2.00;0.50;;;;;;;11.50;100.00;100941.23;104988;1264;75469;-50
2023/05/09 07:15:27;;;;;;;3.10;0.40;;;;;;;11.50;100.00;100944.62;104954;1258;68042;-46
2023/05/09 07:18:06;;;;;;;3.70;0.30;;;;;;;11.48;100.00;100942.75;104844;1265;74784;-47
2023/05/09 07:20:33;;;;;;;0.40;0.30;;;;;;;11.52;100.00;100935.39;104512;1263;62222;-47
2023/05/09 07:23:02;;;;;;;2.80;0.40;;;;;;;11.57;100.00;100931.08;104319;1260;60971;-46
2023/05/09 07:25:29;;;;;;;3.70;0.70;;;;;;;11.64;100.00;100934.27;106715;1258;76171;-46
2023/05/09 07:27:56;;;;;;;2.80;0.40;;;;;;;11.71;100.00;100930.80;104925;1259;68405;-46
2023/05/09 07:30:23;;;;;;;3.20;0.40;;;;;;;11.75;100.00;100925.09;104962;1264;74879;-48
2023/05/09 07:32:50;;;;;;;2.60;0.40;;;;;;;11.76;100.00;100924.16;105100;1264;60519;-47
2023/05/09 07:35:18;;;;;;;1.20;0.50;;;;;;;11.81;100.00;100919.17;105530;1258;60677;-47
2023/05/09 07:37:45;;;;;;;3.60;0.50;;;;;;;11.88;100.00;100913.16;104944;1259;72860;-48
2023/05/09 07:40:12;;;;;;;3.60;0.40;;;;;;;11.95;100.00;100913.81;104995;1264;70197;-47
2023/05/09 07:42:39;;;;;;;0.60;0.30;;;;;;;12.00;100.00;100912.55;105313;1259;73038;-47
2023/05/09 07:45:06;;;;;;;0.80;0.40;;;;;;;12.03;100.00;100908.66;104957;1263;62335;-46
2023/05/09 07:47:33;;;;;;;0.90;0.50;;;;;;;12.00;100.00;100904.79;105173;1265;62725;-49
2023/05/09 07:50:00;;;;;;;3.40;0.40;;;;;;;11.96;100.00;100897.95;105214;1259;75383;-49
2023/05/09 07:52:27;;;;;;;1.40;0.30;;;;;;;11.96;100.00;100891.13;105007;1259;68367;-49
2023/05/09 07:54:54;;;;;;;2.10;0.40;;;;;;;12.04;100.00;100890.27;104832;1262;72569;-49
2023/05/09 07:57:21;;;;;;;3.00;0.40;;;;;;;12.17;100.00;100893.77;104680;1262;61935;-48
2023/05/09 07:59:48;;;;;;;1.20;0.30;;;;;;;12.33;100.00;100892.59;104791;1259;60826;-47
2023/05/09 08:02:15;;;;;;;2.60;0.30;;;;;;;12.46;100.00;100883.65;104650;1262;75615;-47
2023/05/09 08:04:42;;;;;;;7.00;0.40;;;;;;;12.52;100.00;100883.79;104588;1259;70257;-48
2023/05/09 08:07:10;;;;;;;4.40;0.30;;;;;;;12.53;100.00;100883.73;104552;1258;74510;-49
2023/05/09 08:09:37;;;;;;;0.70;0.30;;;;;;;12.50;100.00;100882.05;104900;1264;61008;-47
2023/05/09 08:12:04;;;;;;;0.50;0.30;;;;;;;12.44;100.00;100874.52;104599;1258;61170;-48
2023/05/09 08:14:31;;;;;;;1.90;0.40;;;;;;;12.46;100.00;100876.63;105350;1259;76069;-46
2023/05/09 08:16:58;;;;;;;3.30;0.30;;;;;;;12.56;100.00;100878.05;104852;1264;70026;-47
2023/05/09 08:19:25;;;;;;;3.60;0.30;;;;;;;12.66;100.00;100885.95;104942;1262;71354;-47
2023/05/09 08:21:52;;;;;;;0.30;0.20;;;;;;;12.71;100.00;100882.33;104932;1259;60616;-48
2023/05/09 08:24:19;;;;;;;6.20;0.30;;;;;;;12.70;100.00;100876.23;104688;1259;62459;-47
2023/05/09 08:26:46;;;;;;;0.80;0.30;;;;;;;12.67;100.00;100882.84;105190;1258;74392;-48
2023/05/09 08:29:12;;;;;;;1.80;0.20;;;;;;;12.67;100.00;100880.17;104919;1263;67652;-47
2023/05/09 08:31:39;;;;;;;0.50;0.20;;;;;;;12.64;100.00;100880.98;105031;1263;74682;-46
2023/05/09 08:34:06;;;;;;;0.70;0.30;;;;;;;12.60;100.00;100880.96;106460;1262;61984;-45
2023/05/09 08:36:33;;;;;;;5.20;0.30;;;;;;;12.59;100.00;100879.73;104862;1259;61681;-46
2023/05/09 08:39:00;;;;;;;0.30;0.20;;;;;;;12.58;100.00;100877.65;105012;1259;75081;-46
2023/05/09 08:41:27;;;;;;;1.50;0.20;;;;;;;12.56;100.00;100879.48;104844;1258;68564;-46
2023/05/09 08:43:54;;;;;;;2.50;0.30;;;;;;;12.58;100.00;100871.67;105056;1259;71696;-48
2023/05/09 08:46:27;;;;;;;0.30;0.20;;;;;;;12.64;100.00;100865.67;105005;1258;62285;-48
2023/05/09 08:48:54;;;;;;;1.10;0.30;;;;;;;12.70;100.00;100861.66;106508;1259;60683;-48
2023/05/09 08:51:21;;;;;;;2.00;0.20;;;;;;;12.75;100.00;100862.52;104794;1264;73056;-48
2023/05/09 08:53:47;;;;;;;0.70;0.40;;;;;;;12.85;100.00;100869.70;104952;1259;67069;-48
2023/05/09 08:56:14;;;;;;;0.40;0.20;;;;;;;12.91;100.00;100870.74;104896;1264;73626;-48
2023/05/09 08:58:41;;;;;;;1.00;0.40;;;;;;;12.95;100.00;100864.42;104884;1258;60398;-49
2023/05/09 09:01:08;;;;;;;0.50;0.30;;;;;;;12.96;100.00;100862.95;104885;1258;60494;-48
2023/05/09 09:03:36;;;;;;;6.80;0.30;;;;;;;12.98;100.00;100866.11;105378;1258;74394;-48
2023/05/09 09:06:03;;;;;;;4.10;0.30;;;;;;;13.04;100.00;100869.11;108374;1258;69459;-48
2023/05/09 09:08:30;;;;;;;5.60;0.30;;;;;;;13.10;100.00;100859.49;104950;1264;74376;-47
2023/05/09 09:10:57;;;;;;;1.60;0.20;;;;;;;13.21;100.00;100859.77;104943;1259;61092;-50
2023/05/09 09:13:24;;;;;;;0.40;0.20;;;;;;;13.34;100.00;100858.71;104970;1259;62422;-46
2023/05/09 09:15:51;;;;;;;0.90;0.20;;;;;;;13.43;100.00;100857.96;108525;1262;75441;-48
2023/05/09 09:18:23;;;;;;;0.60;0.30;;;;;;;13.49;100.00;100855.88;107249;1263;67411;-48
2023/05/09 09:20:58;;;;;;;1.20;0.30;;;;;;;13.47;100.00;100866.06;106570;1262;74738;-48
2023/05/09 09:23:26;;;;;;;1.20;0.20;;;;;;;13.43;100.00;100859.60;104774;1258;63635;-48
2023/05/09 09:26:00;;;;;;;0.90;0.30;;;;;;;13.44;100.00;100854.16;108642;1258;62359;-49
2023/05/09 09:28:28;;;;;;;1.60;0.30;;;;;;;13.42;100.00;100863.04;108587;1259;73808;-49
2023/05/09 09:30:54;;;;;;;1.10;0.20;;;;;;;13.33;100.00;100860.38;108606;1258;69668;-51
2023/05/09 09:33:25;;;;;;;1.30;0.20;;;;;;;13.16;100.00;100860.17;107076;1264;74317;-47
2023/05/09 09:35:53;;;;;;;2.30;0.20;;;;;;;13.06;100.00;100863.80;104979;1260;60709;-48
2023/05/09 09:38:21;;;;;;;0.40;0.20;;;;;;;13.10;100.00;100857.52;108586;1260;60347;-51
2023/05/09 09:40:57;;;;;;;0.30;0.30;;;;;;;13.19;100.00;100856.07;108677;1263;76123;-50
2023/05/09 09:43:27;;;;;;;0.60;0.30;;;;;;;13.33;100.00;100843.05;108665;1258;68385;-52
2023/05/09 09:45:55;;;;;;;1.80;0.30;;;;;;;13.49;100.00;100843.09;107212;1263;71306;-51
2023/05/09 09:48:26;;;;;;;1.60;0.40;;;;;;;13.60;100.00;100851.07;105388;1262;62211;-50
2023/05/09 09:50:55;;;;;;;0.40;0.30;;;;;;;13.52;100.00;100853.41;105029;1259;61160;-50
2023/05/09 09:53:22;;;;;;;0.60;0.20;;;;;;;13.36;100.00;100850.67;105079;1262;73927;-51
2023/05/09 09:55:52;;;;;;;0.70;0.30;;;;;;;13.23;100.00;100852.50;104880;1264;67780;-50
2023/05/09 09:58:23;;;;;;;1.50;0.50;;;;;;;13.14;100.00;100847.98;105031;1259;74894;-52
2023/05/09 10:01:07;;;;;;;1.00;0.30;;;;;;;13.13;100.00;100846.41;105001;1263;60317;-50
2023/05/09 10:03:41;;;;;;;1.70;0.20;;;;;;;13.25;100.00;100847.55;104932;1258;60420;-50
2023/05/09 10:06:11;;;;;;;1.30;0.40;;;;;;;13.38;100.00;100852.41;105165;1263;72678;-49
2023/05/09 10:08:39;;;;;;;0.80;0.30;;;;;;;13.46;100.00;100852.58;104970;1260;66542;-50
2023/05/09 10:11:06;;;;;;;4.50;0.20;;;;;;;13.49;100.00;100844.55;104883;1265;73071;-51
2023/05/09 10:13:37;;;;;;;0.90;0.20;;;;;;;13.58;100.00;100843.05;104884;1265;60546;-51
2023/05/09 10:16:04;;;;;;;1.10;0.30;;;;;;;13.70;100.00;100839.28;105288;1264;60615;-50
2023/05/09 10:18:31;;;;;;;2.30;0.20;;;;;;;13.83;100.00;100841.60;104920;1263;74568;-48
2023/05/09 10:21:02;;;;;;;0.40;0.20;;;;;;;13.94;100.00;100838.20;105171;1262;69686;-50
2023/05/09 10:23:30;;;;;;;3.00;0.30;;;;;;;14.01;100.00;100836.27;105370;1260;75388;-52
2023/05/09 10:26:10;;;;;;;2.20;0.10;;;;;;;13.92;100.00;100842.06;105505;1258;62209;-48
2023/05/09 10:28:38;;;;;;;0.50;0.20;;;;;;;13.85;100.00;100839.69;104977;1260;61369;-50
2023/05/09 10:31:20;;;;;;;1.50;0.30;;;;;;;13.77;100.00;100848.54;105367;1259;74122;-50
2023/05/09 10:33:48;;;;;;;4.80;0.30;;;;;;;13.64;100.00;100845.68;104897;1266;69802;-47
2023/05/09 10:36:20;;;;;;;1.30;0.30;;;;;;;13.55;100.00;100845.15;104997;1265;72248;-53
2023/05/09 10:38:47;;;;;;;2.70;0.20;;;;;;;13.50;100.00;100845.55;105265;1264;62422;-51
2023/05/09 10:41:15;;;;;;;0.50;0.30;;;;;;;13.53;100.00;100844.17;104926;1261;60525;-50
2023/05/09 10:43:42;;;;;;;0.40;0.20;;;;;;;13.56;100.00;100836.30;105009;1265;75215;-49
2023/05/09 10:46:08;;;;;;;0.90;0.20;;;;;;;13.57;100.00;100837.52;104894;1267;66015;-51
2023/05/09 10:48:36;;;;;;;0.40;0.30;;;;;;;13.55;100.00;100836.67;105037;1264;73207;-51
2023/05/09 10:51:02;;;;;;;0.70;0.20;;;;;;;13.50;100.00;100838.00;105562;1259;62490;-51
2023/05/09 10:53:48;;;;;;;0.50;0.30;;;;;;;13.41;100.00;100837.49;105024;1263;60442;-49
2023/05/09 10:56:29;;;;;;;0.60;0.20;;;;;;;13.38;100.00;100833.83;105649;1264;75059;-51
2023/05/09 10:58:56;;;;;;;0.50;0.20;;;;;;;13.43;100.00;100833.26;106562;1260;69877;-52
2023/05/09 11:01:33;;;;;;;1.10;0.20;;;;;;;13.47;100.00;100828.92;105029;1262;72819;-50
2023/05/09 11:04:01;;;;;;;1.40;0.30;;;;;;;13.52;100.00;100835.39;106068;1263;62657;-51
2023/05/09 11:06:44;;;;;;;0.40;0.20;;;;;;;13.53;100.00;100836.97;104989;1264;60946;-50
2023/05/09 11:09:31;;;;;;;2.70;0.30;;;;;;;13.47;100.00;100834.34;105760;1258;75685;-51
2023/05/09 11:12:04;;;;;;;1.50;0.20;;;;;;;13.39;100.00;100835.78;107792;1260;69978;-50
2023/05/09 11:14:43;;;;;;;3.60;0.30;;;;;;;13.31;100.00;100837.38;105832;1264;74464;-52
2023/05/09 11:17:12;;;;;;;1.00;0.20;;;;;;;13.21;100.00;100845.35;105192;1264;60574;-52
2023/05/09 11:19:45;;;;;;;0.40;0.30;;;;;;;13.13;100.00;100841.55;105088;1264;62728;-52
2023/05/09 11:22:13;;;;;;;3.00;0.30;;;;;;;13.08;100.00;100834.88;104946;1267;74596;-49